createdAt,value
2022-08-27T00:00:45.944Z,100460.38
2022-08-27T00:03:13.671Z,100457.13
2022-08-27T00:05:41.704Z,100468.13
2022-08-27T00:08:12.634Z,100453.03
2022-08-27T00:10:40.808Z,100453.41
2022-08-27T00:13:08.443Z,100432.06
2022-08-27T00:15:36.103Z,100462.34
2022-08-27T00:18:04.065Z,100460.91
2022-08-27T00:20:31.417Z,100463.38
2022-08-27T00:22:58.570Z,100417.28
2022-08-27T00:25:25.702Z,100456.78
2022-08-27T00:27:52.875Z,100457.88
2022-08-27T00:30:22.688Z,100458.84
2022-08-27T00:32:50.261Z,100463.00
2022-08-27T00:35:18.703Z,100459.94
2022-08-27T00:37:46.132Z,100444.09
2022-08-27T00:40:17.541Z,100452.72
2022-08-27T00:42:46.168Z,100461.03
2022-08-27T00:45:20.347Z,100447.06
2022-08-27T00:47:54.469Z,100461.84
2022-08-27T00:50:28.753Z,100464.34
2022-08-27T00:52:59.417Z,100458.25
2022-08-27T00:55:35.901Z,100465.44
2022-08-27T00:58:11.258Z,100467.31
2022-08-27T01:00:38.735Z,100460.50
2022-08-27T01:03:07.239Z,100454.56
2022-08-27T01:05:36.128Z,100446.78
2022-08-27T01:08:09.764Z,100467.97
2022-08-27T01:10:38.655Z,100469.47
2022-08-27T01:13:11.847Z,100470.72
2022-08-27T01:15:41.224Z,100449.50
2022-08-27T01:18:10.499Z,100472.56
2022-08-27T01:21:10.021Z,100475.69
2022-08-27T01:24:13.953Z,100466.63
2022-08-27T01:26:41.784Z,100476.59
2022-08-27T01:29:11.835Z,100474.75
2022-08-27T01:31:39.361Z,100477.59
2022-08-27T01:34:07.028Z,100473.72
2022-08-27T01:36:34.417Z,100477.78
2022-08-27T01:39:01.544Z,100478.63
2022-08-27T01:41:28.833Z,100470.41
2022-08-27T01:43:56.158Z,100489.22
2022-08-27T01:46:28.661Z,100486.53
2022-08-27T01:48:56.407Z,100469.63
2022-08-27T01:51:23.556Z,100479.06
2022-08-27T01:53:50.963Z,100479.06
2022-08-27T01:56:18.340Z,100481.16
2022-08-27T01:58:45.696Z,100472.47
2022-08-27T02:01:16.894Z,100487.72
2022-08-27T02:03:44.816Z,100488.78
2022-08-27T02:06:12.245Z,100491.06
2022-08-27T02:08:39.719Z,100494.78
2022-08-27T02:11:08.515Z,100487.97
2022-08-27T02:13:36.331Z,100489.06
2022-08-27T02:16:04.099Z,100470.59
2022-08-27T02:18:31.320Z,100496.91
2022-08-27T02:20:58.429Z,100488.69
2022-08-27T02:23:26.204Z,100494.50
2022-08-27T02:25:53.350Z,100493.00
2022-08-27T02:28:20.524Z,100480.47
2022-08-27T02:30:47.696Z,100475.56
2022-08-27T02:33:15.363Z,100487.47
2022-08-27T02:35:44.368Z,100485.00
2022-08-27T02:38:13.201Z,100496.56
2022-08-27T02:40:40.919Z,100489.56
2022-08-27T02:43:09.028Z,100489.19
2022-08-27T02:45:37.582Z,100495.31
2022-08-27T02:48:05.708Z,100482.09
2022-08-27T02:50:33.694Z,100494.06
2022-08-27T02:53:02.417Z,100498.22
2022-08-27T02:55:30.230Z,100499.88
2022-08-27T02:57:57.848Z,100506.53
2022-08-27T03:00:26.163Z,100515.63
2022-08-27T03:02:53.372Z,100499.00
2022-08-27T03:05:21.430Z,100506.00
2022-08-27T03:07:49.660Z,100506.88
2022-08-27T03:10:18.601Z,100509.72
2022-08-27T03:12:45.727Z,100508.09
2022-08-27T03:15:17.360Z,100515.50
2022-08-27T03:18:03.238Z,100510.16
2022-08-27T03:20:30.627Z,100509.13
2022-08-27T03:22:57.785Z,100510.81
2022-08-27T03:25:25.375Z,100513.78
2022-08-27T03:27:52.563Z,100516.28
2022-08-27T03:30:22.160Z,100500.63
2022-08-27T03:32:50.362Z,100509.34
2022-08-27T03:35:19.454Z,100510.13
2022-08-27T03:37:47.223Z,100521.19
2022-08-27T03:40:15.521Z,100513.53
2022-08-27T03:42:43.789Z,100523.25
2022-08-27T03:45:11.626Z,100514.63
2022-08-27T03:47:38.951Z,100507.22
2022-08-27T03:50:07.279Z,100514.63
2022-08-27T03:52:35.918Z,100519.47
2022-08-27T03:55:06.447Z,100528.34
2022-08-27T03:57:33.869Z,100504.91
2022-08-27T04:00:01.323Z,100531.00
2022-08-27T04:02:31.488Z,100526.03
2022-08-27T04:04:58.621Z,100527.19
2022-08-27T04:07:25.729Z,100523.31
2022-08-27T04:09:52.889Z,100515.84
2022-08-27T04:12:20.075Z,100524.66
2022-08-27T04:14:47.317Z,100524.38
2022-08-27T04:17:14.443Z,100528.03
2022-08-27T04:19:41.793Z,100533.19
2022-08-27T04:22:09.377Z,100535.88
2022-08-27T04:24:37.653Z,100516.16
2022-08-27T04:27:05.840Z,100531.19
2022-08-27T04:29:33.268Z,100529.75
2022-08-27T04:32:01.220Z,100524.38
2022-08-27T04:34:28.502Z,100531.91
2022-08-27T04:36:57.294Z,100520.31
2022-08-27T04:39:29.088Z,100532.13
2022-08-27T04:41:58.636Z,100522.38
2022-08-27T04:44:28.994Z,100521.53
2022-08-27T04:46:57.696Z,100531.41
2022-08-27T04:49:27.060Z,100535.44
2022-08-27T04:51:55.121Z,100516.44
2022-08-27T04:54:32.675Z,100530.81
2022-08-27T04:57:05.073Z,100531.97
2022-08-27T04:59:33.155Z,100529.91
2022-08-27T05:02:03.601Z,100535.50
2022-08-27T05:04:32.026Z,100505.00
2022-08-27T05:07:00.694Z,100539.97
2022-08-27T05:09:27.983Z,100545.06
2022-08-27T05:11:55.665Z,100543.97
2022-08-27T05:14:24.243Z,100539.53
2022-08-27T05:16:51.702Z,100538.41
2022-08-27T05:19:18.853Z,100540.88
2022-08-27T05:21:51.691Z,100533.72
2022-08-27T05:24:19.385Z,100533.38
2022-08-27T05:26:46.692Z,100526.72
2022-08-27T05:29:14.432Z,100529.63
2022-08-27T05:31:42.199Z,100534.41
2022-08-27T05:34:10.630Z,100538.53
2022-08-27T05:36:48.940Z,100538.06
2022-08-27T05:39:17.446Z,100539.88
2022-08-27T05:41:44.795Z,100533.91
2022-08-27T05:44:39.540Z,100536.53
2022-08-27T05:46:59.094Z,100538.09
2022-08-27T05:49:26.210Z,100525.66
2022-08-27T05:51:53.472Z,100533.84
2022-08-27T05:54:20.683Z,100521.19
2022-08-27T05:56:51.734Z,100529.13
2022-08-27T05:59:37.974Z,100512.13
2022-08-27T06:02:07.130Z,100518.91
2022-08-27T06:04:34.757Z,100523.13
2022-08-27T06:07:01.957Z,100518.91
2022-08-27T06:09:29.603Z,100529.22
2022-08-27T06:11:59.157Z,100507.53
2022-08-27T06:14:26.673Z,100517.97
2022-08-27T06:16:54.087Z,100521.47
2022-08-27T06:19:21.317Z,100523.94
2022-08-27T06:22:00.047Z,100514.88
2022-08-27T06:24:27.816Z,100522.59
2022-08-27T06:26:54.941Z,100522.84
2022-08-27T06:29:23.749Z,100519.47
2022-08-27T06:31:52.599Z,100513.47
2022-08-27T06:34:19.771Z,100521.91
2022-08-27T06:36:46.927Z,100521.63
2022-08-27T06:39:15.626Z,100518.28
2022-08-27T06:41:44.222Z,100512.31
2022-08-27T06:44:13.062Z,100501.69
2022-08-27T06:46:40.754Z,100509.16
2022-08-27T06:49:08.874Z,100507.91
2022-08-27T06:51:38.332Z,100510.03
2022-08-27T06:54:09.662Z,100498.75
2022-08-27T06:56:36.906Z,100503.97
2022-08-27T06:59:06.340Z,100505.97
2022-08-27T07:01:42.728Z,100499.47
2022-08-27T07:04:14.138Z,100489.88
2022-08-27T07:06:41.914Z,100490.66
2022-08-27T07:09:10.194Z,100496.34
2022-08-27T07:11:38.504Z,100494.34
2022-08-27T07:14:06.741Z,100498.03
2022-08-27T07:16:34.240Z,100492.59
2022-08-27T07:19:04.285Z,100500.19
2022-08-27T07:21:32.390Z,100497.47
2022-08-27T07:24:04.838Z,100490.00
2022-08-27T07:26:35.240Z,100501.28
2022-08-27T07:29:03.090Z,100494.00
2022-08-27T07:31:30.771Z,100495.78
2022-08-27T07:33:58.028Z,100490.41
2022-08-27T07:36:25.176Z,100478.63
2022-08-27T07:38:59.286Z,100477.91
2022-08-27T07:41:31.847Z,100489.81
2022-08-27T07:44:20.863Z,100489.94
2022-08-27T07:46:49.426Z,100487.03
2022-08-27T07:49:17.839Z,100483.69
2022-08-27T07:51:45.326Z,100487.59
2022-08-27T07:54:12.567Z,100464.25
2022-08-27T07:56:39.847Z,100483.88
2022-08-27T07:59:07.733Z,100479.78
2022-08-27T08:01:34.990Z,100488.81
2022-08-27T08:04:02.866Z,100476.91
2022-08-27T08:06:30.016Z,100473.63
2022-08-27T08:08:58.804Z,100477.94
2022-08-27T08:11:26.512Z,100465.75
2022-08-27T08:13:53.764Z,100476.69
2022-08-27T08:16:29.568Z,100475.34
2022-08-27T08:19:00.374Z,100449.91
2022-08-27T08:21:27.987Z,100468.41
2022-08-27T08:23:55.261Z,100469.28
2022-08-27T08:26:23.260Z,100464.69
2022-08-27T08:28:50.491Z,100460.31
2022-08-27T08:31:17.807Z,100451.06
2022-08-27T08:33:46.337Z,100461.94
2022-08-27T08:36:16.075Z,100448.88
2022-08-27T08:38:44.711Z,100443.47
2022-08-27T08:41:24.224Z,100447.81
2022-08-27T08:43:51.910Z,100446.16
2022-08-27T08:46:36.823Z,100438.03
2022-08-27T08:49:23.741Z,100415.16
2022-08-27T08:51:55.890Z,100433.66
2022-08-27T08:54:30.706Z,100429.31
2022-08-27T08:57:39.700Z,100442.59
2022-08-27T09:00:14.264Z,100424.91
2022-08-27T09:02:52.150Z,100435.22
2022-08-27T09:05:19.881Z,100423.53
2022-08-27T09:08:21.801Z,100394.16
2022-08-27T09:11:05.453Z,100427.06
2022-08-27T09:13:38.426Z,100428.72
2022-08-27T09:16:06.552Z,100423.25
2022-08-27T09:18:37.844Z,100426.44
2022-08-27T09:21:29.666Z,100424.28
2022-08-27T09:23:57.454Z,100421.63
2022-08-27T09:26:27.849Z,100418.03
2022-08-27T09:29:18.579Z,100421.31
2022-08-27T09:32:09.396Z,100422.06
2022-08-27T09:34:39.411Z,100413.16
2022-08-27T09:37:10.362Z,100419.94
2022-08-27T09:39:43.602Z,100412.91
2022-08-27T09:42:28.115Z,100408.59
2022-08-27T09:44:55.873Z,100412.38
2022-08-27T09:47:24.195Z,100412.91
2022-08-27T09:50:09.906Z,100417.00
2022-08-27T09:52:51.368Z,100415.13
2022-08-27T09:55:48.370Z,100417.25
2022-08-27T09:58:21.974Z,100411.16
2022-08-27T10:00:58.622Z,100415.78
2022-08-27T10:03:27.999Z,100404.69
2022-08-27T10:06:01.472Z,100414.72
2022-08-27T10:08:47.307Z,100408.47
2022-08-27T10:11:21.096Z,100419.28
2022-08-27T10:14:03.905Z,100416.59
2022-08-27T10:16:31.252Z,100417.03
2022-08-27T10:19:32.493Z,100413.25
2022-08-27T10:22:39.474Z,100404.28
2022-08-27T10:25:28.552Z,100406.75
2022-08-27T10:28:24.211Z,100415.97
2022-08-27T10:31:16.292Z,100412.94
2022-08-27T10:33:52.467Z,100399.09
2022-08-27T10:36:26.747Z,100395.34
2022-08-27T10:39:08.909Z,100407.78
2022-08-27T10:41:45.776Z,100402.22
2022-08-27T10:44:17.404Z,100394.03
2022-08-27T10:46:49.944Z,100402.88
2022-08-27T10:49:24.294Z,100400.97
2022-08-27T10:52:18.298Z,100403.78
2022-08-27T10:54:57.065Z,100401.47
2022-08-27T10:57:58.962Z,100394.66
2022-08-27T11:00:48.891Z,100390.00
2022-08-27T11:03:32.291Z,100390.28
2022-08-27T11:06:24.209Z,100383.72
2022-08-27T11:08:57.690Z,100386.41
2022-08-27T11:14:37.699Z,100385.72
2022-08-27T11:17:12.175Z,100385.00
2022-08-27T11:20:14.298Z,100388.09
2022-08-27T11:22:59.793Z,100379.00
2022-08-27T11:25:46.765Z,100379.81
2022-08-27T11:28:14.672Z,100374.97
2022-08-27T11:31:12.859Z,100382.44
2022-08-27T11:34:12.324Z,100376.13
2022-08-27T11:37:11.370Z,100376.66
2022-08-27T11:39:53.703Z,100378.34
2022-08-27T11:42:45.683Z,100377.44
2022-08-27T11:45:20.008Z,100352.66
2022-08-27T11:47:55.952Z,100360.72
2022-08-27T11:50:25.724Z,100379.66
2022-08-27T11:53:03.209Z,100384.53
2022-08-27T11:55:39.278Z,100368.44
2022-08-27T11:58:18.355Z,100371.66
2022-08-27T12:00:48.340Z,100370.38
2022-08-27T12:03:32.491Z,100364.84
2022-08-27T12:05:59.739Z,100358.91
2022-08-27T12:08:31.815Z,100366.53
2022-08-27T12:11:26.901Z,100358.34
2022-08-27T12:14:13.209Z,100367.09
2022-08-27T12:16:48.235Z,100353.00
2022-08-27T12:19:45.907Z,100357.94
2022-08-27T12:23:00.366Z,100358.97
2022-08-27T12:25:27.772Z,100341.91
2022-08-27T12:28:05.578Z,100354.69
2022-08-27T12:30:37.386Z,100358.31
2022-08-27T12:33:14.248Z,100338.56
2022-08-27T12:35:50.650Z,100348.16
2022-08-27T12:38:46.287Z,100343.66
2022-08-27T12:41:25.644Z,100325.28
2022-08-27T12:44:09.685Z,100333.75
2022-08-27T12:46:51.674Z,100342.91
2022-08-27T12:49:38.199Z,100336.88
2022-08-27T12:52:20.358Z,100338.41
2022-08-27T12:54:59.946Z,100338.50
2022-08-27T12:57:38.593Z,100336.53
2022-08-27T13:00:14.145Z,100326.81
2022-08-27T13:02:53.366Z,100331.00
2022-08-27T13:05:22.648Z,100326.38
2022-08-27T13:07:51.652Z,100323.94
2022-08-27T13:10:26.702Z,100327.69
2022-08-27T13:13:16.739Z,100310.84
2022-08-27T13:15:47.352Z,100328.22
2022-08-27T13:18:16.258Z,100329.38
2022-08-27T13:20:53.073Z,100327.13
2022-08-27T13:23:24.022Z,100323.34
2022-08-27T13:26:06.502Z,100329.69
2022-08-27T13:28:35.761Z,100321.63
2022-08-27T13:31:06.136Z,100319.59
2022-08-27T13:33:36.649Z,100305.59
2022-08-27T13:36:06.756Z,100326.00
2022-08-27T13:38:43.660Z,100322.97
2022-08-27T13:41:22.636Z,100325.03
2022-08-27T13:43:50.167Z,100317.06
2022-08-27T13:46:31.086Z,100313.03
2022-08-27T13:49:00.346Z,100311.03
2022-08-27T13:51:34.024Z,100319.97
2022-08-27T13:54:13.487Z,100310.66
2022-08-27T13:56:42.508Z,100318.84
2022-08-27T13:59:15.268Z,100308.69
2022-08-27T14:02:00.075Z,100304.84
2022-08-27T14:04:44.771Z,100305.81
2022-08-27T14:07:17.622Z,100296.19
2022-08-27T14:09:57.012Z,100311.31
2022-08-27T14:12:35.422Z,100309.81
2022-08-27T14:15:43.445Z,100310.31
2022-08-27T14:18:57.443Z,100306.50
2022-08-27T14:21:22.288Z,100296.84
2022-08-27T14:23:49.803Z,100302.25
2022-08-27T14:26:17.521Z,100303.94
2022-08-27T14:28:46.387Z,100299.59
2022-08-27T14:31:15.322Z,100292.50
2022-08-27T14:33:43.256Z,100297.72
2022-08-27T14:36:11.280Z,100286.59
2022-08-27T14:38:42.035Z,100299.88
2022-08-27T14:41:09.365Z,100300.16
2022-08-27T14:43:37.887Z,100293.59
2022-08-27T14:46:07.819Z,100299.38
2022-08-27T14:48:36.976Z,100299.38
2022-08-27T14:51:12.945Z,100267.69
2022-08-27T14:53:40.302Z,100302.97
2022-08-27T14:56:08.139Z,100303.75
2022-08-27T14:58:35.251Z,100295.56
2022-08-27T15:01:03.703Z,100308.38
2022-08-27T15:03:31.706Z,100299.16
2022-08-27T15:05:58.888Z,100295.94
2022-08-27T15:08:29.353Z,100299.47
2022-08-27T15:11:00.007Z,100293.72
2022-08-27T15:13:27.494Z,100293.50
2022-08-27T15:15:54.923Z,100295.97
2022-08-27T15:18:22.127Z,100283.50
2022-08-27T15:20:50.275Z,100305.72
2022-08-27T15:23:18.176Z,100301.97
2022-08-27T15:25:46.454Z,100293.28
2022-08-27T15:28:13.843Z,100304.72
2022-08-27T15:30:41.241Z,100295.25
2022-08-27T15:33:08.805Z,100293.34
2022-08-27T15:35:35.971Z,100285.78
2022-08-27T15:38:03.496Z,100284.72
2022-08-27T15:40:35.307Z,100295.59
2022-08-27T15:43:06.223Z,100283.63
2022-08-27T15:45:33.767Z,100281.97
2022-08-27T15:48:01.518Z,100287.41
2022-08-27T15:50:31.248Z,100286.84
2022-08-27T15:53:02.104Z,100296.63
2022-08-27T15:55:32.973Z,100293.41
2022-08-27T15:58:01.123Z,100288.50
2022-08-27T16:00:30.270Z,100286.88
2022-08-27T16:02:57.935Z,100290.66
2022-08-27T16:05:34.189Z,100287.97
2022-08-27T16:08:01.552Z,100272.75
2022-08-27T16:10:29.001Z,100288.50
2022-08-27T16:12:56.201Z,100286.31
2022-08-27T16:15:23.635Z,100289.59
2022-08-27T16:17:55.670Z,100286.84
2022-08-27T16:20:24.806Z,100293.59
2022-08-27T16:22:53.429Z,100276.19
2022-08-27T16:25:23.319Z,100295.75
2022-08-27T16:27:51.502Z,100264.50
2022-08-27T16:30:19.695Z,100282.69
2022-08-27T16:32:49.176Z,100282.94
2022-08-27T16:35:19.531Z,100290.84
2022-08-27T16:37:47.015Z,100272.63
2022-08-27T16:40:15.300Z,100276.94
2022-08-27T16:42:48.085Z,100287.84
2022-08-27T16:45:17.684Z,100286.19
2022-08-27T16:48:12.938Z,100293.81
2022-08-27T16:50:41.228Z,100294.34
2022-08-27T16:53:14.949Z,100298.09
2022-08-27T16:55:44.073Z,100283.41
2022-08-27T16:58:18.796Z,100294.50
2022-08-27T17:00:47.345Z,100301.81
2022-08-27T17:03:16.423Z,100295.28
2022-08-27T17:05:43.630Z,100268.88
2022-08-27T17:08:11.656Z,100289.78
2022-08-27T17:10:45.723Z,100301.16
2022-08-27T17:13:15.649Z,100308.16
2022-08-27T17:15:44.199Z,100300.81
2022-08-27T17:18:11.538Z,100297.25
2022-08-27T17:20:38.855Z,100302.69
2022-08-27T17:23:07.783Z,100292.63
2022-08-27T17:25:34.906Z,100301.03
2022-08-27T17:28:02.233Z,100300.69
2022-08-27T17:30:29.558Z,100304.19
2022-08-27T17:32:56.820Z,100300.31
2022-08-27T17:35:24.449Z,100312.88
2022-08-27T17:37:52.165Z,100306.84
2022-08-27T17:40:19.530Z,100306.53
2022-08-27T17:42:47.091Z,100313.88
2022-08-27T17:45:16.591Z,100318.66
2022-08-27T17:47:44.240Z,100308.03
2022-08-27T17:50:11.455Z,100306.69
2022-08-27T17:52:39.270Z,100315.88
2022-08-27T17:55:07.316Z,100296.22
2022-08-27T17:57:40.586Z,100307.88
2022-08-27T18:00:12.103Z,100317.97
2022-08-27T18:02:48.264Z,100310.25
2022-08-27T18:05:19.372Z,100321.16
2022-08-27T18:07:47.818Z,100326.84
2022-08-27T18:10:18.511Z,100327.56
2022-08-27T18:12:46.236Z,100324.31
2022-08-27T18:15:21.014Z,100316.13
2022-08-27T18:17:53.234Z,100327.56
2022-08-27T18:20:23.123Z,100326.22
2022-08-27T18:22:51.433Z,100310.00
2022-08-27T18:25:21.082Z,100320.31
2022-08-27T18:27:51.614Z,100328.97
2022-08-27T18:30:19.572Z,100314.97
2022-08-27T18:32:47.127Z,100326.69
2022-08-27T18:35:22.273Z,100323.38
2022-08-27T18:37:50.074Z,100324.38
2022-08-27T18:40:19.885Z,100311.78
2022-08-27T18:42:48.313Z,100318.91
2022-08-27T18:45:19.506Z,100313.44
2022-08-27T18:47:47.176Z,100322.63
2022-08-27T18:50:19.096Z,100305.41
2022-08-27T18:52:48.497Z,100314.56
2022-08-27T18:55:18.790Z,100314.78
2022-08-27T18:57:46.068Z,100319.66
2022-08-27T19:00:15.859Z,100297.81
2022-08-27T19:02:43.391Z,100314.78
2022-08-27T19:05:12.232Z,100321.38
2022-08-27T19:07:39.610Z,100312.03
2022-08-27T19:10:07.874Z,100318.28
2022-08-27T19:12:36.862Z,100313.06
2022-08-27T19:15:04.559Z,100324.84
2022-08-27T19:17:34.920Z,100305.25
2022-08-27T19:20:04.118Z,100311.16
2022-08-27T19:22:31.972Z,100304.53
2022-08-27T19:24:59.936Z,100324.09
2022-08-27T19:27:29.160Z,100319.16
2022-08-27T19:29:56.507Z,100319.69
2022-08-27T19:32:24.015Z,100318.06
2022-08-27T19:34:51.289Z,100315.84
2022-08-27T19:37:25.440Z,100303.00
2022-08-27T19:39:53.204Z,100318.63
2022-08-27T19:42:20.533Z,100307.16
2022-08-27T19:44:48.080Z,100318.38
2022-08-27T19:47:16.776Z,100307.75
2022-08-27T19:49:49.877Z,100314.00
2022-08-27T19:52:17.091Z,100314.97
2022-08-27T19:55:09.850Z,100312.16
2022-08-27T19:57:31.535Z,100306.59
2022-08-27T19:59:58.773Z,100312.00
2022-08-27T20:02:26.351Z,100317.91
2022-08-27T20:05:19.811Z,100308.00
2022-08-27T20:07:49.983Z,100314.78
2022-08-27T20:10:18.767Z,100309.78
2022-08-27T20:12:45.974Z,100316.06
2022-08-27T20:15:13.244Z,100304.41
2022-08-27T20:17:40.787Z,100289.00
2022-08-27T20:20:08.906Z,100305.53
2022-08-27T20:22:39.736Z,100302.72
2022-08-27T20:25:07.390Z,100289.28
2022-08-27T20:27:34.972Z,100307.78
2022-08-27T20:30:04.694Z,100312.38
2022-08-27T20:32:31.889Z,100307.69
2022-08-27T20:34:59.004Z,100296.00
2022-08-27T20:37:26.119Z,100309.72
2022-08-27T20:39:53.565Z,100296.13
2022-08-27T20:42:20.988Z,100304.31
2022-08-27T20:44:49.026Z,100303.03
2022-08-27T20:47:17.740Z,100308.66
2022-08-27T20:49:45.004Z,100313.47
2022-08-27T20:52:13.075Z,100313.94
2022-08-27T20:54:40.831Z,100304.78
2022-08-27T20:57:09.022Z,100298.72
2022-08-27T20:59:55.209Z,100305.41
2022-08-27T21:02:26.916Z,100309.97
2022-08-27T21:04:55.042Z,100306.69
2022-08-27T21:07:23.656Z,100302.88
2022-08-27T21:09:56.823Z,100307.91
2022-08-27T21:12:29.151Z,100302.38
2022-08-27T21:14:58.059Z,100287.78
2022-08-27T21:17:27.676Z,100291.03
2022-08-27T21:19:55.724Z,100307.41
2022-08-27T21:22:23.880Z,100298.88
2022-08-27T21:24:52.358Z,100301.56
2022-08-27T21:27:21.594Z,100302.72
2022-08-27T21:29:49.509Z,100280.97
2022-08-27T21:32:17.428Z,100287.34
2022-08-27T21:34:44.849Z,100298.06
2022-08-27T21:37:14.399Z,100296.41
2022-08-27T21:39:42.694Z,100295.91
2022-08-27T21:42:12.424Z,100290.53
2022-08-27T21:44:39.708Z,100288.91
2022-08-27T21:47:07.854Z,100277.44
2022-08-27T21:49:35.273Z,100285.72
2022-08-27T21:52:04.892Z,100286.09
2022-08-27T21:54:34.012Z,100288.19
2022-08-27T21:57:03.114Z,100281.97
2022-08-27T21:59:31.912Z,100281.13
2022-08-27T22:02:00.967Z,100279.53
2022-08-27T22:04:30.610Z,100282.69
2022-08-27T22:06:58.742Z,100278.34
2022-08-27T22:09:27.302Z,100278.81
2022-08-27T22:11:54.902Z,100275.22
2022-08-27T22:14:22.386Z,100271.59
2022-08-27T22:16:50.258Z,100269.03
2022-08-27T22:19:18.000Z,100261.91
2022-08-27T22:21:46.068Z,100272.69
2022-08-27T22:24:13.424Z,100271.50
2022-08-27T22:26:40.911Z,100271.19
2022-08-27T22:29:08.244Z,100261.91
2022-08-27T22:31:35.798Z,100269.31
2022-08-27T22:34:03.168Z,100269.78
2022-08-27T22:36:30.502Z,100252.91
2022-08-27T22:38:59.572Z,100263.22
2022-08-27T22:41:32.551Z,100263.69
2022-08-27T22:44:00.299Z,100266.03
2022-08-27T22:46:27.664Z,100275.41
2022-08-27T22:48:54.837Z,100270.50
2022-08-27T22:51:22.378Z,100259.44
2022-08-27T22:53:49.485Z,100266.38
2022-08-27T22:56:16.641Z,100261.00
2022-08-27T22:58:46.025Z,100261.56
2022-08-27T23:01:19.128Z,100264.00
2022-08-27T23:03:46.409Z,100268.13
2022-08-27T23:06:13.976Z,100267.19
2022-08-27T23:08:41.173Z,100270.09
2022-08-27T23:11:08.454Z,100261.91
2022-08-27T23:13:35.615Z,100262.16
2022-08-27T23:16:03.275Z,100261.56
2022-08-27T23:18:30.571Z,100265.28
2022-08-27T23:20:57.827Z,100253.50
2022-08-27T23:23:29.918Z,100255.38
2022-08-27T23:26:17.120Z,100257.13
2022-08-27T23:28:45.059Z,100255.00
2022-08-27T23:31:13.098Z,100257.59
2022-08-27T23:33:41.107Z,100247.03
2022-08-27T23:36:09.826Z,100242.59
2022-08-27T23:38:37.580Z,100241.91
2022-08-27T23:41:05.779Z,100253.25
2022-08-27T23:43:32.951Z,100252.44
2022-08-27T23:46:00.157Z,100243.28
2022-08-27T23:48:27.477Z,100257.13
2022-08-27T23:50:54.693Z,100225.50
2022-08-27T23:53:22.092Z,100234.16
2022-08-27T23:55:49.333Z,100247.28
2022-08-27T23:58:16.499Z,100242.38
